< < Back
Terminal Aerodrome Forecast


Current Version              Previous Versions:   1  2  3  4  5  6  7  8  9  

Terminal Aerodrome Forecast

489
FTAK31 PAJN 271912 AAA
TAFAGS
TAF AMD
PAGS 271912Z 2719/2818 VRB04KT P6SM -RA SCT003 BKN025 OVC050
      WS020/13025KT
      TEMPO 2719/2721 4SM RA BR BKN003 BKN015 OVC025
     FM272100 12010KT 3SM RA BR OVC015 WS020/13025KT
     FM280300 13010KT 5SM -RA BR BKN015 OVC025
      AMD LTD TO CLD VIS AND WIND=



Latest METAR

220
SAUS70 KWBC 271900 RRL
MTRAGS
METAR KAGS 271853Z 24010G18KT 10SM SCT060 36/21 A2999 RMK AO2 SLP152
T03610211


USA.gov is the U.S. government's official web portal to all federal, state and local government web resources and services.